createdAt,value
2023-01-19T00:00:51.599Z,79.36
2023-01-19T00:03:18.638Z,79.15
2023-01-19T00:05:46.427Z,78.97
2023-01-19T00:08:16.414Z,79.01
2023-01-19T00:10:45.039Z,79.09
2023-01-19T00:13:12.194Z,78.90
2023-01-19T00:15:39.363Z,78.59
2023-01-19T00:18:06.154Z,78.41
2023-01-19T00:20:32.965Z,78.52
2023-01-19T00:23:00.119Z,78.55
2023-01-19T00:25:27.059Z,78.71
2023-01-19T00:27:53.877Z,78.81
2023-01-19T00:30:20.762Z,78.91
2023-01-19T00:32:47.480Z,78.40
2023-01-19T00:35:14.354Z,77.91
2023-01-19T00:37:41.044Z,77.77
2023-01-19T00:40:08.865Z,77.67
2023-01-19T00:42:41.720Z,79.37
2023-01-19T00:45:09.753Z,78.81
2023-01-19T00:47:36.546Z,78.94
2023-01-19T00:50:03.350Z,78.80
2023-01-19T00:52:30.055Z,78.51
2023-01-19T00:54:56.742Z,78.73
2023-01-19T00:57:23.646Z,78.88
2023-01-19T00:59:50.368Z,79.22
2023-01-19T01:02:17.280Z,79.53
2023-01-19T01:04:44.238Z,79.88
2023-01-19T01:07:11.029Z,80.17
2023-01-19T01:09:37.727Z,80.01
2023-01-19T01:12:04.533Z,80.07
2023-01-19T01:14:32.951Z,80.16
2023-01-19T01:17:00.825Z,80.48
2023-01-19T01:19:27.621Z,80.92
2023-01-19T01:21:55.617Z,80.77
2023-01-19T01:24:22.406Z,80.42
2023-01-19T01:26:49.109Z,79.75
2023-01-19T01:29:15.830Z,79.54
2023-01-19T01:31:42.682Z,79.32
2023-01-19T01:34:09.615Z,79.23
2023-01-19T01:36:36.399Z,79.37
2023-01-19T01:39:03.205Z,79.56
2023-01-19T01:41:30.043Z,79.51
2023-01-19T01:44:01.890Z,79.45
2023-01-19T01:46:30.481Z,79.46
2023-01-19T01:49:03.608Z,79.77
2023-01-19T01:51:37.305Z,79.45
2023-01-19T01:54:32.268Z,79.58
2023-01-19T01:57:03.998Z,79.54
2023-01-19T01:59:34.939Z,79.40
2023-01-19T02:02:25.625Z,79.43
2023-01-19T02:04:55.777Z,79.56
2023-01-19T02:07:49.024Z,78.58
2023-01-19T02:10:34.578Z,78.14
2023-01-19T02:13:20.311Z,77.76
2023-01-19T02:15:56.184Z,77.95
2023-01-19T02:18:23.988Z,77.92
2023-01-19T02:20:54.365Z,77.60
2023-01-19T02:23:31.719Z,77.08
2023-01-19T02:25:58.846Z,76.48
2023-01-19T02:28:26.257Z,76.31
2023-01-19T02:30:53.013Z,76.32
2023-01-19T02:33:19.854Z,76.20
2023-01-19T02:35:46.678Z,76.04
2023-01-19T02:38:13.760Z,75.98
2023-01-19T02:40:40.460Z,75.91
2023-01-19T02:43:07.142Z,75.71
2023-01-19T02:45:33.843Z,75.64
2023-01-19T02:48:00.551Z,75.74
2023-01-19T02:50:49.974Z,75.74
2023-01-19T02:53:36.674Z,75.78
2023-01-19T02:56:28.639Z,75.97
2023-01-19T02:59:15.987Z,76.04
2023-01-19T03:01:52.528Z,76.07
2023-01-19T03:04:32.708Z,75.65
2023-01-19T03:07:14.815Z,75.98
2023-01-19T03:09:43.448Z,75.91
2023-01-19T03:12:19.689Z,76.23
2023-01-19T03:14:46.685Z,76.07
2023-01-19T03:17:13.389Z,75.83
2023-01-19T03:19:41.299Z,76.36
2023-01-19T03:22:13.438Z,76.59
2023-01-19T03:24:42.094Z,76.92
2023-01-19T03:27:11.906Z,76.79
2023-01-19T03:29:38.763Z,77.32
2023-01-19T03:32:09.274Z,77.25
2023-01-19T03:34:36.176Z,76.95
2023-01-19T03:37:03.996Z,76.74
2023-01-19T03:39:30.916Z,76.76
2023-01-19T03:41:59.434Z,77.04
2023-01-19T03:44:26.446Z,77.23
2023-01-19T03:46:53.247Z,77.25
2023-01-19T03:49:19.957Z,77.62
2023-01-19T03:51:46.736Z,77.59
2023-01-19T03:54:13.430Z,77.56
2023-01-19T03:56:40.114Z,77.58
2023-01-19T03:59:07.563Z,77.50
2023-01-19T04:01:34.401Z,77.67
2023-01-19T04:04:01.232Z,77.67
2023-01-19T04:06:28.450Z,77.57
2023-01-19T04:08:55.137Z,77.40
2023-01-19T04:11:21.841Z,77.16
2023-01-19T04:13:48.557Z,77.20
2023-01-19T04:16:20.056Z,77.39
2023-01-19T04:18:46.964Z,77.82
2023-01-19T04:21:13.654Z,77.94
2023-01-19T04:23:40.346Z,78.34
2023-01-19T04:26:08.000Z,78.96
2023-01-19T04:28:35.296Z,79.43
2023-01-19T04:31:02.040Z,80.12
2023-01-19T04:33:29.105Z,80.93
2023-01-19T04:35:56.314Z,81.23
2023-01-19T04:38:24.167Z,81.48
2023-01-19T04:40:51.260Z,81.54
2023-01-19T04:43:18.656Z,81.18
2023-01-19T04:45:46.282Z,80.96
2023-01-19T04:48:13.694Z,80.71
2023-01-19T04:50:41.717Z,79.74
2023-01-19T04:53:08.649Z,79.75
2023-01-19T04:55:35.329Z,79.97
2023-01-19T04:58:02.058Z,79.85
2023-01-19T05:00:28.688Z,79.84
2023-01-19T05:02:55.380Z,80.22
2023-01-19T05:05:22.117Z,80.61
2023-01-19T05:07:48.781Z,80.83
2023-01-19T05:10:15.997Z,81.01
2023-01-19T05:12:42.734Z,81.01
2023-01-19T05:15:10.195Z,81.25
2023-01-19T05:17:36.979Z,80.95
2023-01-19T05:20:04.299Z,80.67
2023-01-19T05:22:31.097Z,80.61
2023-01-19T05:24:58.382Z,80.63
2023-01-19T05:27:25.024Z,80.48
2023-01-19T05:29:52.050Z,80.35
2023-01-19T05:32:18.785Z,80.31
2023-01-19T05:34:45.441Z,79.52
2023-01-19T05:37:12.200Z,78.89
2023-01-19T05:39:38.938Z,79.05
2023-01-19T05:42:05.760Z,79.51
2023-01-19T05:44:32.418Z,79.57
2023-01-19T05:46:59.220Z,79.69
2023-01-19T05:49:25.898Z,79.95
2023-01-19T05:51:52.547Z,79.62
2023-01-19T05:54:19.294Z,79.88
2023-01-19T05:56:46.052Z,80.09
2023-01-19T05:59:12.787Z,80.14
2023-01-19T06:01:40.290Z,79.35
2023-01-19T06:04:07.297Z,79.21
2023-01-19T06:06:33.970Z,78.74
2023-01-19T06:09:00.638Z,78.51
2023-01-19T06:11:27.332Z,78.16
2023-01-19T06:13:54.032Z,77.63
2023-01-19T06:16:20.762Z,77.30
2023-01-19T06:18:47.417Z,77.14
2023-01-19T06:21:14.428Z,77.09
2023-01-19T06:23:41.249Z,77.19
2023-01-19T06:26:07.977Z,77.11
2023-01-19T06:28:34.772Z,77.02
2023-01-19T06:31:01.558Z,76.65
2023-01-19T06:33:28.674Z,76.77
2023-01-19T06:35:55.551Z,76.85
2023-01-19T06:38:22.268Z,76.88
2023-01-19T06:40:58.279Z,77.30
2023-01-19T06:43:25.353Z,77.85
2023-01-19T06:45:52.227Z,77.42
2023-01-19T06:48:19.123Z,76.36
2023-01-19T06:50:45.987Z,75.71
2023-01-19T06:53:12.890Z,75.06
2023-01-19T06:55:39.602Z,75.06
2023-01-19T06:58:06.585Z,74.97
2023-01-19T07:00:33.275Z,73.57
2023-01-19T07:03:00.817Z,70.90
2023-01-19T07:05:27.906Z,68.28
2023-01-19T07:07:55.222Z,66.28
2023-01-19T07:10:22.128Z,64.01
2023-01-19T07:12:48.797Z,60.23
2023-01-19T07:15:16.290Z,57.98
2023-01-19T07:17:43.531Z,57.11
2023-01-19T07:20:13.066Z,56.57
2023-01-19T07:22:41.298Z,55.83
2023-01-19T07:25:08.309Z,55.45
2023-01-19T07:27:34.955Z,53.98
2023-01-19T07:30:01.663Z,53.84
2023-01-19T07:32:28.787Z,54.90
2023-01-19T07:34:55.466Z,57.48
2023-01-19T07:37:22.221Z,60.11
2023-01-19T07:39:48.882Z,62.30
2023-01-19T07:42:15.598Z,64.17
2023-01-19T07:44:42.307Z,65.96
2023-01-19T07:47:12.526Z,67.34
2023-01-19T07:49:39.672Z,68.19
2023-01-19T07:52:06.403Z,69.14
2023-01-19T07:54:33.261Z,69.78
2023-01-19T07:57:00.857Z,70.37
2023-01-19T07:59:31.161Z,70.77
2023-01-19T08:01:59.560Z,71.17
2023-01-19T08:04:29.433Z,71.75
2023-01-19T08:06:56.172Z,71.98
2023-01-19T08:09:23.892Z,72.54
2023-01-19T08:11:50.588Z,73.12
2023-01-19T08:14:17.436Z,73.35
2023-01-19T08:16:44.194Z,73.86
2023-01-19T08:19:10.908Z,74.03
2023-01-19T08:21:38.946Z,74.41
2023-01-19T08:24:06.061Z,74.38
2023-01-19T08:26:34.493Z,74.68
2023-01-19T08:29:03.053Z,74.72
2023-01-19T08:31:29.890Z,74.97
2023-01-19T08:33:56.734Z,75.14
2023-01-19T08:36:25.030Z,75.26
2023-01-19T08:38:51.910Z,75.33
2023-01-19T08:41:18.651Z,75.63
2023-01-19T08:43:45.532Z,76.20
2023-01-19T08:46:12.509Z,76.53
2023-01-19T08:48:40.080Z,76.72
2023-01-19T08:51:06.837Z,76.74
2023-01-19T08:53:34.196Z,77.10
2023-01-19T08:56:01.345Z,77.52
2023-01-19T08:58:28.388Z,77.90
2023-01-19T09:00:55.185Z,78.67
2023-01-19T09:03:22.821Z,79.43
2023-01-19T09:05:49.755Z,79.64
2023-01-19T09:08:16.579Z,80.02
2023-01-19T09:10:48.011Z,80.04
2023-01-19T09:13:14.936Z,80.49
2023-01-19T09:15:43.173Z,80.94
2023-01-19T09:18:13.550Z,81.08
2023-01-19T09:20:44.339Z,81.10
2023-01-19T09:23:12.261Z,81.59
2023-01-19T09:25:39.504Z,81.38
2023-01-19T09:28:07.709Z,81.46
2023-01-19T09:30:36.718Z,81.47
2023-01-19T09:33:06.341Z,81.64
2023-01-19T09:35:33.858Z,81.66
2023-01-19T09:38:01.041Z,81.71
2023-01-19T09:40:28.560Z,82.04
2023-01-19T09:43:01.269Z,82.05
2023-01-19T09:45:42.724Z,82.08
2023-01-19T09:48:35.748Z,82.08
2023-01-19T09:51:03.771Z,82.07
2023-01-19T09:53:40.294Z,82.02
2023-01-19T09:56:15.354Z,81.71
2023-01-19T09:58:42.159Z,81.87
2023-01-19T10:01:36.463Z,81.76
2023-01-19T10:04:22.619Z,81.71
2023-01-19T10:06:49.520Z,81.88
2023-01-19T10:09:25.198Z,81.95
2023-01-19T10:11:55.387Z,82.12
2023-01-19T10:14:44.610Z,81.96
2023-01-19T10:17:20.385Z,81.95
2023-01-19T10:19:49.489Z,81.91
2023-01-19T10:22:26.889Z,81.86
2023-01-19T10:24:55.848Z,81.67
2023-01-19T10:27:24.987Z,81.89
2023-01-19T10:29:51.832Z,81.89
2023-01-19T10:32:34.257Z,82.01
2023-01-19T10:35:01.058Z,81.96
2023-01-19T10:37:32.495Z,81.96
2023-01-19T10:40:02.667Z,81.90
2023-01-19T10:42:30.921Z,82.17
2023-01-19T10:44:57.902Z,81.94
2023-01-19T10:47:30.573Z,82.01
2023-01-19T10:49:57.363Z,82.03
2023-01-19T10:52:35.532Z,82.11
2023-01-19T10:55:03.037Z,82.10
2023-01-19T10:57:32.614Z,82.05
2023-01-19T10:59:59.422Z,82.46
2023-01-19T11:02:28.036Z,82.73
2023-01-19T11:04:59.280Z,82.61
2023-01-19T11:07:27.023Z,82.98
2023-01-19T11:10:12.626Z,83.14
2023-01-19T11:13:01.687Z,83.38
2023-01-19T11:15:41.025Z,83.49
2023-01-19T11:18:07.896Z,83.16
2023-01-19T11:20:49.747Z,83.28
2023-01-19T11:23:28.636Z,83.71
2023-01-19T11:26:01.296Z,83.42
2023-01-19T11:28:36.713Z,83.85
2023-01-19T11:31:18.538Z,83.99
2023-01-19T11:33:50.831Z,83.95
2023-01-19T11:36:22.917Z,84.25
2023-01-19T11:38:53.488Z,84.51
2023-01-19T11:41:29.652Z,84.43
2023-01-19T11:44:12.085Z,84.49
2023-01-19T11:46:43.486Z,84.45
2023-01-19T11:49:25.887Z,84.38
2023-01-19T11:52:00.169Z,84.95
2023-01-19T11:55:03.642Z,85.09
2023-01-19T11:57:33.990Z,84.92
2023-01-19T12:00:05.653Z,85.05
2023-01-19T12:02:45.168Z,85.26
2023-01-19T12:05:16.966Z,85.15
2023-01-19T12:07:46.103Z,85.30
2023-01-19T12:10:33.206Z,85.41
2023-01-19T12:13:02.470Z,85.14
2023-01-19T12:15:43.056Z,85.11
2023-01-19T12:18:41.238Z,85.21
2023-01-19T12:21:10.668Z,85.07
2023-01-19T12:23:53.649Z,85.04
2023-01-19T12:26:57.608Z,84.80
2023-01-19T12:29:30.468Z,84.91
2023-01-19T12:32:18.196Z,84.63
2023-01-19T12:34:51.914Z,84.63
2023-01-19T12:37:35.692Z,84.58
2023-01-19T12:50:24.158Z,84.07
2023-01-19T12:52:58.708Z,84.05
2023-01-19T12:55:27.807Z,83.95
2023-01-19T12:58:08.080Z,84.15
2023-01-19T13:00:39.471Z,84.00
2023-01-19T13:03:32.363Z,83.80
2023-01-19T13:05:59.280Z,83.85
2023-01-19T13:08:29.850Z,84.13
2023-01-19T13:10:59.848Z,83.83
2023-01-19T13:13:29.565Z,84.11
2023-01-19T13:15:57.331Z,83.98
2023-01-19T13:18:25.361Z,84.10
2023-01-19T13:21:02.560Z,83.94
2023-01-19T13:23:50.016Z,83.99
2023-01-19T13:26:21.100Z,83.93
2023-01-19T13:28:53.445Z,83.62
2023-01-19T13:31:20.301Z,84.29
2023-01-19T13:33:52.789Z,84.14
2023-01-19T13:36:26.984Z,84.74
2023-01-19T13:38:54.091Z,84.75
2023-01-19T13:41:25.734Z,84.48
2023-01-19T13:43:58.816Z,84.61
2023-01-19T13:46:26.454Z,84.84
2023-01-19T13:49:01.611Z,84.73
2023-01-19T13:51:28.397Z,84.94
2023-01-19T13:53:58.989Z,85.15
2023-01-19T13:56:28.541Z,85.16
2023-01-19T13:59:10.047Z,85.16
2023-01-19T14:01:38.489Z,84.86
2023-01-19T14:04:05.511Z,84.79
2023-01-19T14:06:40.542Z,84.73
2023-01-19T14:09:16.612Z,84.60
2023-01-19T14:12:03.681Z,84.24
2023-01-19T14:14:30.419Z,84.47
2023-01-19T14:16:57.098Z,84.81
2023-01-19T14:19:23.839Z,84.81
2023-01-19T14:22:04.056Z,84.73
2023-01-19T14:24:33.389Z,84.63
2023-01-19T14:27:19.436Z,84.49
2023-01-19T14:29:47.611Z,84.80
2023-01-19T14:32:24.202Z,84.60
2023-01-19T14:34:53.780Z,84.92
2023-01-19T14:37:25.848Z,85.20
2023-01-19T14:40:01.952Z,85.35
2023-01-19T14:42:29.929Z,85.98
2023-01-19T14:44:57.416Z,86.23
2023-01-19T14:47:29.662Z,86.62
2023-01-19T14:50:00.344Z,86.59
2023-01-19T14:52:30.759Z,86.79
2023-01-19T14:54:57.474Z,86.92
2023-01-19T14:57:24.169Z,87.00
2023-01-19T14:59:50.938Z,86.80
2023-01-19T15:02:21.531Z,87.10
2023-01-19T15:04:48.281Z,86.82
2023-01-19T15:07:22.526Z,86.51
2023-01-19T15:09:49.239Z,86.51
2023-01-19T15:12:17.473Z,86.19
2023-01-19T15:14:45.076Z,85.99
2023-01-19T15:17:25.487Z,85.85
2023-01-19T15:19:55.512Z,85.83
2023-01-19T15:22:22.827Z,85.21
2023-01-19T15:24:49.853Z,85.09
2023-01-19T15:27:16.950Z,84.87
2023-01-19T15:29:43.748Z,84.94
2023-01-19T15:32:14.262Z,84.73
2023-01-19T15:34:41.500Z,84.75
2023-01-19T15:37:08.358Z,84.60
2023-01-19T15:39:35.512Z,84.67
2023-01-19T15:42:02.353Z,84.60
2023-01-19T15:44:29.695Z,84.28
2023-01-19T15:46:57.502Z,84.03
2023-01-19T15:49:24.317Z,84.05
2023-01-19T15:51:51.081Z,83.93
2023-01-19T15:54:18.219Z,83.49
2023-01-19T15:56:45.092Z,83.54
2023-01-19T15:59:11.790Z,83.37
2023-01-19T16:01:38.554Z,83.17
2023-01-19T16:04:06.419Z,83.18
2023-01-19T16:06:33.544Z,83.05
2023-01-19T16:09:01.545Z,83.09
2023-01-19T16:11:29.884Z,82.86
2023-01-19T16:13:56.688Z,82.85
2023-01-19T16:16:24.526Z,82.95
2023-01-19T16:18:51.390Z,82.87
2023-01-19T16:21:18.099Z,82.70
2023-01-19T16:23:44.791Z,82.48
2023-01-19T16:26:24.869Z,82.38
2023-01-19T16:28:51.560Z,82.16
2023-01-19T16:31:18.390Z,82.11
2023-01-19T16:33:45.344Z,82.12
2023-01-19T16:36:20.171Z,82.10
2023-01-19T16:38:46.875Z,81.86
2023-01-19T16:41:13.627Z,81.76
2023-01-19T16:43:40.431Z,81.93
2023-01-19T16:46:07.165Z,81.70
2023-01-19T16:48:34.028Z,81.66
2023-01-19T16:51:05.248Z,81.70
2023-01-19T16:53:34.950Z,81.69
2023-01-19T16:56:08.497Z,81.50
2023-01-19T16:58:37.510Z,81.20
2023-01-19T17:01:12.497Z,81.15
2023-01-19T17:03:39.670Z,81.20
2023-01-19T17:06:07.294Z,81.31
2023-01-19T17:08:34.812Z,81.57
2023-01-19T17:11:04.931Z,81.44
2023-01-19T17:13:31.983Z,81.66
2023-01-19T17:16:00.767Z,81.96
2023-01-19T17:18:31.117Z,81.77
2023-01-19T17:21:02.887Z,82.11
2023-01-19T17:23:30.106Z,82.33
2023-01-19T17:25:57.991Z,82.53
2023-01-19T17:28:25.431Z,82.59
2023-01-19T17:30:52.649Z,82.79
2023-01-19T17:33:20.755Z,83.02
2023-01-19T17:35:47.471Z,83.64
2023-01-19T17:38:14.265Z,83.41
2023-01-19T17:40:41.283Z,83.48
2023-01-19T17:43:08.070Z,83.51
2023-01-19T17:45:36.306Z,83.31
2023-01-19T17:48:04.385Z,83.28
2023-01-19T17:50:32.758Z,83.19
2023-01-19T17:52:59.495Z,82.94
2023-01-19T17:55:26.444Z,83.17
2023-01-19T17:57:53.390Z,82.89
2023-01-19T18:00:20.690Z,82.87
2023-01-19T18:02:51.911Z,83.04
2023-01-19T18:05:19.299Z,82.77
2023-01-19T18:07:47.215Z,82.82
2023-01-19T18:10:14.507Z,83.04
2023-01-19T18:12:41.618Z,82.95
2023-01-19T18:15:09.079Z,82.99
2023-01-19T18:17:36.156Z,83.19
2023-01-19T18:20:03.480Z,83.59
2023-01-19T18:22:30.528Z,83.36
2023-01-19T18:24:57.471Z,83.23
2023-01-19T18:27:24.430Z,83.33
2023-01-19T18:29:51.378Z,83.58
2023-01-19T18:32:18.292Z,83.35
2023-01-19T18:34:45.254Z,83.46
2023-01-19T18:37:11.991Z,83.49
2023-01-19T18:39:38.770Z,83.57
2023-01-19T18:42:05.685Z,84.07
2023-01-19T18:44:32.485Z,84.10
2023-01-19T18:46:59.223Z,83.60
2023-01-19T18:49:26.008Z,83.92
2023-01-19T18:51:52.770Z,84.18
2023-01-19T18:54:20.220Z,84.21
2023-01-19T18:56:49.306Z,83.71
2023-01-19T18:59:16.044Z,83.79
2023-01-19T19:01:43.064Z,83.99
2023-01-19T19:04:10.257Z,83.90
2023-01-19T19:06:37.291Z,83.99
2023-01-19T19:09:04.392Z,84.01
2023-01-19T19:11:31.167Z,84.18
2023-01-19T19:14:00.589Z,83.62
2023-01-19T19:16:27.453Z,83.79
2023-01-19T19:18:54.215Z,83.74
2023-01-19T19:21:21.770Z,83.73
2023-01-19T19:23:53.101Z,83.66
2023-01-19T19:26:19.881Z,83.40
2023-01-19T19:28:47.790Z,83.41
2023-01-19T19:31:16.952Z,83.18
2023-01-19T19:33:44.141Z,83.25
2023-01-19T19:36:11.897Z,83.05
2023-01-19T19:38:41.373Z,83.15
2023-01-19T19:41:09.383Z,83.00
2023-01-19T19:43:36.737Z,83.04
2023-01-19T19:46:05.787Z,83.09
2023-01-19T19:48:32.750Z,82.79
2023-01-19T19:51:28.914Z,82.50
2023-01-19T19:53:57.093Z,82.33
2023-01-19T19:56:24.357Z,82.53
2023-01-19T19:58:51.378Z,82.37
2023-01-19T20:01:25.925Z,82.68
2023-01-19T20:03:53.792Z,82.85
2023-01-19T20:06:22.859Z,82.52
2023-01-19T20:08:50.195Z,82.43
2023-01-19T20:11:19.017Z,82.14
2023-01-19T20:13:47.910Z,82.09
2023-01-19T20:16:19.316Z,82.04
2023-01-19T20:18:48.861Z,82.10
2023-01-19T20:21:20.583Z,81.85
2023-01-19T20:23:47.710Z,81.85
2023-01-19T20:26:15.713Z,81.87
2023-01-19T20:28:42.808Z,82.00
2023-01-19T20:31:10.654Z,82.03
2023-01-19T20:33:37.555Z,81.94
2023-01-19T20:36:04.956Z,81.80
2023-01-19T20:38:32.163Z,81.96
2023-01-19T20:40:59.041Z,82.40
2023-01-19T20:43:26.007Z,82.39
2023-01-19T20:45:52.925Z,82.34
2023-01-19T20:48:19.675Z,82.19
2023-01-19T20:50:46.383Z,82.12
2023-01-19T20:53:13.073Z,82.53
2023-01-19T20:55:40.024Z,82.69
2023-01-19T20:58:06.853Z,82.61
2023-01-19T21:00:35.015Z,82.30
2023-01-19T21:03:02.099Z,82.53
2023-01-19T21:05:29.040Z,82.64
2023-01-19T21:07:55.778Z,82.81
2023-01-19T21:10:22.690Z,82.83
2023-01-19T21:12:49.482Z,82.84
2023-01-19T21:15:16.419Z,82.82
2023-01-19T21:17:45.110Z,82.89
2023-01-19T21:20:12.446Z,83.05
2023-01-19T21:22:39.452Z,83.32
2023-01-19T21:25:07.679Z,83.31
2023-01-19T21:27:34.375Z,83.55
2023-01-19T21:30:02.687Z,83.95
2023-01-19T21:32:29.513Z,83.48
2023-01-19T21:34:56.477Z,83.34
2023-01-19T21:37:23.209Z,83.76
2023-01-19T21:39:50.170Z,83.50
2023-01-19T21:42:17.111Z,83.70
2023-01-19T21:44:44.056Z,83.47
2023-01-19T21:47:12.053Z,83.46
2023-01-19T21:49:38.754Z,82.95
2023-01-19T21:52:05.626Z,82.95
2023-01-19T21:54:32.555Z,82.85
2023-01-19T21:57:01.276Z,82.71
2023-01-19T21:59:28.393Z,82.45
2023-01-19T22:01:55.143Z,83.03
2023-01-19T22:04:22.000Z,82.79
2023-01-19T22:06:48.722Z,82.74
2023-01-19T22:09:15.419Z,82.66
2023-01-19T22:11:42.180Z,82.75
2023-01-19T22:14:08.902Z,82.92
2023-01-19T22:16:35.756Z,82.83
2023-01-19T22:19:02.863Z,82.49
2023-01-19T22:21:35.128Z,82.37
2023-01-19T22:24:02.567Z,82.45
2023-01-19T22:26:30.051Z,82.81
2023-01-19T22:28:59.187Z,82.60
2023-01-19T22:31:26.636Z,82.63
2023-01-19T22:33:53.727Z,82.60
2023-01-19T22:36:22.503Z,82.84
2023-01-19T22:38:55.404Z,82.67
2023-01-19T22:41:27.058Z,82.42
2023-01-19T22:43:55.329Z,82.61
2023-01-19T22:46:23.869Z,82.60
2023-01-19T22:48:50.855Z,82.30
2023-01-19T22:51:17.770Z,82.44
2023-01-19T22:53:44.962Z,82.18
2023-01-19T22:56:16.188Z,82.27
2023-01-19T22:58:45.747Z,82.18
2023-01-19T23:01:13.986Z,82.08
2023-01-19T23:03:40.897Z,82.17
2023-01-19T23:06:12.509Z,82.21
2023-01-19T23:08:39.716Z,81.91
2023-01-19T23:11:17.772Z,81.77
2023-01-19T23:13:44.623Z,81.71
2023-01-19T23:16:12.459Z,81.70
2023-01-19T23:18:39.668Z,81.76
2023-01-19T23:21:08.405Z,81.94
2023-01-19T23:23:35.416Z,81.78
2023-01-19T23:26:03.742Z,81.56
2023-01-19T23:28:31.166Z,81.53
2023-01-19T23:30:57.948Z,81.44
2023-01-19T23:33:24.798Z,81.31
2023-01-19T23:35:51.632Z,81.43
2023-01-19T23:38:18.391Z,81.52
2023-01-19T23:40:45.128Z,80.96
2023-01-19T23:43:12.043Z,81.04
2023-01-19T23:45:38.765Z,80.81
2023-01-19T23:48:05.680Z,80.67
2023-01-19T23:50:32.469Z,80.61
2023-01-19T23:52:59.237Z,80.69
2023-01-19T23:55:27.386Z,80.64
2023-01-19T23:57:54.090Z,80.49
